sensor_id;sensor_type;location;lat;lon;timestamp;pressure;altitude;pressure_sealevel;temperature
19040;BMP180;9652;49.014;12.052;2023-01-25T00:00:43;99418.00;;;6.20
19040;BMP180;9652;49.014;12.052;2023-01-25T00:03:10;99417.00;;;6.10
19040;BMP180;9652;49.014;12.052;2023-01-25T00:05:37;99417.00;;;6.10
19040;BMP180;9652;49.014;12.052;2023-01-25T00:08:05;99420.00;;;6.10
19040;BMP180;9652;49.014;12.052;2023-01-25T00:10:32;99416.00;;;6.10
19040;BMP180;9652;49.014;12.052;2023-01-25T00:13:00;99407.00;;;6.20
19040;BMP180;9652;49.014;12.052;2023-01-25T00:15:27;99413.00;;;6.10
19040;BMP180;9652;49.014;12.052;2023-01-25T00:17:54;99413.00;;;6.10
19040;BMP180;9652;49.014;12.052;2023-01-25T00:20:21;99425.00;;;6.10
19040;BMP180;9652;49.014;12.052;2023-01-25T00:22:48;99420.00;;;6.10
19040;BMP180;9652;49.014;12.052;2023-01-25T00:25:15;99411.00;;;6.10
19040;BMP180;9652;49.014;12.052;2023-01-25T00:27:42;99419.00;;;6.10
19040;BMP180;9652;49.014;12.052;2023-01-25T00:30:12;99419.00;;;6.10
19040;BMP180;9652;49.014;12.052;2023-01-25T00:32:53;99421.00;;;6.00
19040;BMP180;9652;49.014;12.052;2023-01-25T00:35:29;99416.00;;;6.00
19040;BMP180;9652;49.014;12.052;2023-01-25T00:38:00;99408.00;;;5.90
19040;BMP180;9652;49.014;12.052;2023-01-25T00:40:27;99396.00;;;5.90
19040;BMP180;9652;49.014;12.052;2023-01-25T00:42:54;99398.00;;;5.90
19040;BMP180;9652;49.014;12.052;2023-01-25T00:45:23;99409.00;;;5.90
19040;BMP180;9652;49.014;12.052;2023-01-25T00:47:53;99394.00;;;5.90
19040;BMP180;9652;49.014;12.052;2023-01-25T00:50:21;99399.00;;;5.90
19040;BMP180;9652;49.014;12.052;2023-01-25T00:52:48;99399.00;;;5.80
19040;BMP180;9652;49.014;12.052;2023-01-25T00:55:15;99399.00;;;5.80
19040;BMP180;9652;49.014;12.052;2023-01-25T00:57:42;99386.00;;;5.80
19040;BMP180;9652;49.014;12.052;2023-01-25T01:00:10;99400.00;;;5.80
19040;BMP180;9652;49.014;12.052;2023-01-25T01:02:39;99392.00;;;5.80
19040;BMP180;9652;49.014;12.052;2023-01-25T01:05:07;99391.00;;;5.80
19040;BMP180;9652;49.014;12.052;2023-01-25T01:07:34;99390.00;;;5.70
19040;BMP180;9652;49.014;12.052;2023-01-25T01:10:02;99382.00;;;5.80
19040;BMP180;9652;49.014;12.052;2023-01-25T01:12:29;99396.00;;;5.70
19040;BMP180;9652;49.014;12.052;2023-01-25T01:14:56;99392.00;;;5.70
19040;BMP180;9652;49.014;12.052;2023-01-25T01:17:24;99396.00;;;5.70
19040;BMP180;9652;49.014;12.052;2023-01-25T01:19:52;99403.00;;;5.50
19040;BMP180;9652;49.014;12.052;2023-01-25T01:22:19;99401.00;;;5.70
19040;BMP180;9652;49.014;12.052;2023-01-25T01:24:47;99402.00;;;5.70
19040;BMP180;9652;49.014;12.052;2023-01-25T01:27:14;99395.00;;;5.70
19040;BMP180;9652;49.014;12.052;2023-01-25T01:29:41;99403.00;;;5.60
19040;BMP180;9652;49.014;12.052;2023-01-25T01:32:08;99401.00;;;5.60
19040;BMP180;9652;49.014;12.052;2023-01-25T01:34:35;99411.00;;;5.60
19040;BMP180;9652;49.014;12.052;2023-01-25T01:37:04;99409.00;;;5.60
19040;BMP180;9652;49.014;12.052;2023-01-25T01:39:31;99405.00;;;5.60
19040;BMP180;9652;49.014;12.052;2023-01-25T01:41:58;99405.00;;;5.60
19040;BMP180;9652;49.014;12.052;2023-01-25T01:44:46;99396.00;;;5.60
19040;BMP180;9652;49.014;12.052;2023-01-25T01:47:21;99400.00;;;5.60
19040;BMP180;9652;49.014;12.052;2023-01-25T01:49:56;99390.00;;;5.60
19040;BMP180;9652;49.014;12.052;2023-01-25T01:52:34;99390.00;;;5.50
19040;BMP180;9652;49.014;12.052;2023-01-25T01:55:07;99402.00;;;5.50
19040;BMP180;9652;49.014;12.052;2023-01-25T01:57:42;99395.00;;;5.50
19040;BMP180;9652;49.014;12.052;2023-01-25T02:00:16;99399.00;;;5.50
19040;BMP180;9652;49.014;12.052;2023-01-25T02:02:46;99401.00;;;5.50
19040;BMP180;9652;49.014;12.052;2023-01-25T02:05:23;99408.00;;;5.50
19040;BMP180;9652;49.014;12.052;2023-01-25T02:07:54;99406.00;;;5.20
19040;BMP180;9652;49.014;12.052;2023-01-25T02:10:24;99407.00;;;5.40
19040;BMP180;9652;49.014;12.052;2023-01-25T02:12:56;99396.00;;;5.40
19040;BMP180;9652;49.014;12.052;2023-01-25T02:15:28;99406.00;;;5.40
19040;BMP180;9652;49.014;12.052;2023-01-25T02:18:00;99407.00;;;5.40
19040;BMP180;9652;49.014;12.052;2023-01-25T02:20:35;99395.00;;;5.40
19040;BMP180;9652;49.014;12.052;2023-01-25T02:23:15;99401.00;;;5.40
19040;BMP180;9652;49.014;12.052;2023-01-25T02:25:46;99403.00;;;5.40
19040;BMP180;9652;49.014;12.052;2023-01-25T02:28:19;99397.00;;;5.40
19040;BMP180;9652;49.014;12.052;2023-01-25T02:30:48;99399.00;;;5.40
19040;BMP180;9652;49.014;12.052;2023-01-25T02:33:15;99403.00;;;5.40
19040;BMP180;9652;49.014;12.052;2023-01-25T02:35:45;99385.00;;;5.40
19040;BMP180;9652;49.014;12.052;2023-01-25T02:38:18;99405.00;;;5.40
19040;BMP180;9652;49.014;12.052;2023-01-25T02:40:56;99400.00;;;5.40
19040;BMP180;9652;49.014;12.052;2023-01-25T02:43:30;99389.00;;;5.40
19040;BMP180;9652;49.014;12.052;2023-01-25T02:46:08;99407.00;;;5.40
19040;BMP180;9652;49.014;12.052;2023-01-25T02:48:36;99402.00;;;5.40
19040;BMP180;9652;49.014;12.052;2023-01-25T02:51:08;99389.00;;;5.40
19040;BMP180;9652;49.014;12.052;2023-01-25T02:53:36;99404.00;;;5.40
19040;BMP180;9652;49.014;12.052;2023-01-25T02:56:05;99379.00;;;5.40
19040;BMP180;9652;49.014;12.052;2023-01-25T02:58:32;99400.00;;;5.40
19040;BMP180;9652;49.014;12.052;2023-01-25T03:01:00;99400.00;;;5.40
19040;BMP180;9652;49.014;12.052;2023-01-25T03:03:27;99392.00;;;5.50
19040;BMP180;9652;49.014;12.052;2023-01-25T03:05:54;99396.00;;;5.50
19040;BMP180;9652;49.014;12.052;2023-01-25T03:08:21;99391.00;;;5.50
19040;BMP180;9652;49.014;12.052;2023-01-25T03:10:55;99379.00;;;5.50
19040;BMP180;9652;49.014;12.052;2023-01-25T03:13:24;99391.00;;;5.50
19040;BMP180;9652;49.014;12.052;2023-01-25T03:15:57;99397.00;;;5.60
19040;BMP180;9652;49.014;12.052;2023-01-25T03:18:25;99391.00;;;5.60
19040;BMP180;9652;49.014;12.052;2023-01-25T03:20:53;99381.00;;;5.60
19040;BMP180;9652;49.014;12.052;2023-01-25T03:23:20;99386.00;;;5.60
19040;BMP180;9652;49.014;12.052;2023-01-25T03:25:47;99380.00;;;5.60
19040;BMP180;9652;49.014;12.052;2023-01-25T03:28:17;99374.00;;;5.60
19040;BMP180;9652;49.014;12.052;2023-01-25T03:30:52;99359.00;;;5.50
19040;BMP180;9652;49.014;12.052;2023-01-25T03:33:20;99363.00;;;5.50
19040;BMP180;9652;49.014;12.052;2023-01-25T03:35:51;99370.00;;;5.50
19040;BMP180;9652;49.014;12.052;2023-01-25T03:38:18;99359.00;;;5.50
19040;BMP180;9652;49.014;12.052;2023-01-25T03:40:46;99356.00;;;5.40
19040;BMP180;9652;49.014;12.052;2023-01-25T03:43:14;99361.00;;;5.40
19040;BMP180;9652;49.014;12.052;2023-01-25T03:45:42;99354.00;;;5.40
19040;BMP180;9652;49.014;12.052;2023-01-25T03:48:12;99357.00;;;5.30
19040;BMP180;9652;49.014;12.052;2023-01-25T03:50:39;99358.00;;;5.30
19040;BMP180;9652;49.014;12.052;2023-01-25T03:53:07;99362.00;;;5.30
19040;BMP180;9652;49.014;12.052;2023-01-25T03:55:45;99366.00;;;5.30
19040;BMP180;9652;49.014;12.052;2023-01-25T03:58:13;99352.00;;;5.40
19040;BMP180;9652;49.014;12.052;2023-01-25T04:00:40;99333.00;;;5.40
19040;BMP180;9652;49.014;12.052;2023-01-25T04:03:07;99361.00;;;5.40
19040;BMP180;9652;49.014;12.052;2023-01-25T04:05:35;99348.00;;;5.40
19040;BMP180;9652;49.014;12.052;2023-01-25T04:08:02;99352.00;;;5.40
19040;BMP180;9652;49.014;12.052;2023-01-25T04:10:36;99337.00;;;5.50
19040;BMP180;9652;49.014;12.052;2023-01-25T04:13:05;99319.00;;;5.50
19040;BMP180;9652;49.014;12.052;2023-01-25T04:15:33;99342.00;;;5.50
19040;BMP180;9652;49.014;12.052;2023-01-25T04:18:08;99344.00;;;5.50
19040;BMP180;9652;49.014;12.052;2023-01-25T04:20:37;99341.00;;;5.50
19040;BMP180;9652;49.014;12.052;2023-01-25T04:23:05;99334.00;;;5.50
19040;BMP180;9652;49.014;12.052;2023-01-25T04:25:36;99330.00;;;5.50
19040;BMP180;9652;49.014;12.052;2023-01-25T04:28:09;99316.00;;;5.50
19040;BMP180;9652;49.014;12.052;2023-01-25T04:30:36;99311.00;;;5.50
19040;BMP180;9652;49.014;12.052;2023-01-25T04:33:04;99317.00;;;5.40
19040;BMP180;9652;49.014;12.052;2023-01-25T04:35:31;99304.00;;;5.50
19040;BMP180;9652;49.014;12.052;2023-01-25T04:38:01;99305.00;;;5.40
19040;BMP180;9652;49.014;12.052;2023-01-25T04:40:35;99315.00;;;5.40
19040;BMP180;9652;49.014;12.052;2023-01-25T04:43:02;99312.00;;;5.40
19040;BMP180;9652;49.014;12.052;2023-01-25T04:45:32;99294.00;;;5.40
19040;BMP180;9652;49.014;12.052;2023-01-25T04:48:06;99297.00;;;5.30
19040;BMP180;9652;49.014;12.052;2023-01-25T04:50:36;99304.00;;;5.30
19040;BMP180;9652;49.014;12.052;2023-01-25T04:53:06;99304.00;;;5.20
19040;BMP180;9652;49.014;12.052;2023-01-25T04:55:34;99295.00;;;5.30
19040;BMP180;9652;49.014;12.052;2023-01-25T04:58:02;99297.00;;;5.30
19040;BMP180;9652;49.014;12.052;2023-01-25T05:00:32;99305.00;;;5.30
19040;BMP180;9652;49.014;12.052;2023-01-25T05:03:02;99296.00;;;5.30
19040;BMP180;9652;49.014;12.052;2023-01-25T05:05:29;99264.00;;;5.30
19040;BMP180;9652;49.014;12.052;2023-01-25T05:07:58;99295.00;;;5.30
19040;BMP180;9652;49.014;12.052;2023-01-25T05:10:29;99288.00;;;5.40
19040;BMP180;9652;49.014;12.052;2023-01-25T05:13:15;99281.00;;;5.40
19040;BMP180;9652;49.014;12.052;2023-01-25T05:15:44;99287.00;;;5.40
19040;BMP180;9652;49.014;12.052;2023-01-25T05:18:12;99296.00;;;5.40
19040;BMP180;9652;49.014;12.052;2023-01-25T05:20:39;99280.00;;;5.40
19040;BMP180;9652;49.014;12.052;2023-01-25T05:23:06;99290.00;;;5.40
19040;BMP180;9652;49.014;12.052;2023-01-25T05:25:34;99285.00;;;5.40
19040;BMP180;9652;49.014;12.052;2023-01-25T05:28:28;99276.00;;;5.40
19040;BMP180;9652;49.014;12.052;2023-01-25T05:31:15;99269.00;;;5.40
19040;BMP180;9652;49.014;12.052;2023-01-25T05:33:42;99284.00;;;5.40
19040;BMP180;9652;49.014;12.052;2023-01-25T05:36:09;99273.00;;;5.40
19040;BMP180;9652;49.014;12.052;2023-01-25T05:38:37;99274.00;;;5.40
19040;BMP180;9652;49.014;12.052;2023-01-25T05:41:08;99254.00;;;5.40
19040;BMP180;9652;49.014;12.052;2023-01-25T05:43:35;99268.00;;;5.50
19040;BMP180;9652;49.014;12.052;2023-01-25T05:46:05;99272.00;;;5.50
19040;BMP180;9652;49.014;12.052;2023-01-25T05:48:33;99267.00;;;5.50
19040;BMP180;9652;49.014;12.052;2023-01-25T05:51:00;99273.00;;;5.50
19040;BMP180;9652;49.014;12.052;2023-01-25T05:53:28;99268.00;;;5.50
19040;BMP180;9652;49.014;12.052;2023-01-25T05:56:03;99256.00;;;5.50
19040;BMP180;9652;49.014;12.052;2023-01-25T05:58:31;99262.00;;;5.50
19040;BMP180;9652;49.014;12.052;2023-01-25T06:00:59;99253.00;;;5.50
19040;BMP180;9652;49.014;12.052;2023-01-25T06:03:36;99247.00;;;5.50
19040;BMP180;9652;49.014;12.052;2023-01-25T06:06:04;99225.00;;;5.60
19040;BMP180;9652;49.014;12.052;2023-01-25T06:08:32;99248.00;;;5.60
19040;BMP180;9652;49.014;12.052;2023-01-25T06:11:05;99251.00;;;5.60
19040;BMP180;9652;49.014;12.052;2023-01-25T06:13:34;99240.00;;;5.60
19040;BMP180;9652;49.014;12.052;2023-01-25T06:16:01;99248.00;;;5.60
19040;BMP180;9652;49.014;12.052;2023-01-25T06:18:40;99250.00;;;5.60
19040;BMP180;9652;49.014;12.052;2023-01-25T06:21:20;99241.00;;;5.60
19040;BMP180;9652;49.014;12.052;2023-01-25T06:23:47;99256.00;;;5.60
19040;BMP180;9652;49.014;12.052;2023-01-25T06:26:14;99248.00;;;5.70
19040;BMP180;9652;49.014;12.052;2023-01-25T06:28:43;99244.00;;;5.60
19040;BMP180;9652;49.014;12.052;2023-01-25T06:31:12;99256.00;;;5.70
19040;BMP180;9652;49.014;12.052;2023-01-25T06:33:41;99255.00;;;5.70
19040;BMP180;9652;49.014;12.052;2023-01-25T06:36:13;99242.00;;;5.70
19040;BMP180;9652;49.014;12.052;2023-01-25T06:38:41;99258.00;;;5.70
19040;BMP180;9652;49.014;12.052;2023-01-25T06:41:10;99258.00;;;5.70
19040;BMP180;9652;49.014;12.052;2023-01-25T06:43:43;99268.00;;;5.80
19040;BMP180;9652;49.014;12.052;2023-01-25T06:46:11;99253.00;;;5.70
19040;BMP180;9652;49.014;12.052;2023-01-25T06:48:38;99264.00;;;5.70
19040;BMP180;9652;49.014;12.052;2023-01-25T06:51:11;99231.00;;;5.70
19040;BMP180;9652;49.014;12.052;2023-01-25T06:53:40;99264.00;;;5.70
19040;BMP180;9652;49.014;12.052;2023-01-25T06:56:10;99249.00;;;5.70
19040;BMP180;9652;49.014;12.052;2023-01-25T06:58:39;99267.00;;;5.70
19040;BMP180;9652;49.014;12.052;2023-01-25T07:01:12;99261.00;;;5.70
19040;BMP180;9652;49.014;12.052;2023-01-25T07:03:40;99266.00;;;5.70
19040;BMP180;9652;49.014;12.052;2023-01-25T07:06:09;99264.00;;;5.60
19040;BMP180;9652;49.014;12.052;2023-01-25T07:08:37;99248.00;;;5.70
19040;BMP180;9652;49.014;12.052;2023-01-25T07:11:08;99258.00;;;5.70
19040;BMP180;9652;49.014;12.052;2023-01-25T07:13:39;99249.00;;;5.70
19040;BMP180;9652;49.014;12.052;2023-01-25T07:16:13;99253.00;;;5.70
19040;BMP180;9652;49.014;12.052;2023-01-25T07:18:41;99244.00;;;5.70
19040;BMP180;9652;49.014;12.052;2023-01-25T07:21:11;99256.00;;;5.70
19040;BMP180;9652;49.014;12.052;2023-01-25T07:23:38;99250.00;;;5.70
19040;BMP180;9652;49.014;12.052;2023-01-25T07:26:14;99213.00;;;5.60
19040;BMP180;9652;49.014;12.052;2023-01-25T07:28:42;99249.00;;;5.70
19040;BMP180;9652;49.014;12.052;2023-01-25T07:31:11;99239.00;;;5.70
19040;BMP180;9652;49.014;12.052;2023-01-25T07:33:39;99219.00;;;5.70
19040;BMP180;9652;49.014;12.052;2023-01-25T07:36:09;99244.00;;;5.70
19040;BMP180;9652;49.014;12.052;2023-01-25T07:38:36;99233.00;;;5.80
19040;BMP180;9652;49.014;12.052;2023-01-25T07:41:04;99245.00;;;5.80
19040;BMP180;9652;49.014;12.052;2023-01-25T07:43:32;99244.00;;;5.80
19040;BMP180;9652;49.014;12.052;2023-01-25T07:46:04;99237.00;;;5.80
19040;BMP180;9652;49.014;12.052;2023-01-25T07:48:33;99239.00;;;5.90
19040;BMP180;9652;49.014;12.052;2023-01-25T07:51:02;99231.00;;;5.90
19040;BMP180;9652;49.014;12.052;2023-01-25T07:53:49;99248.00;;;5.90
19040;BMP180;9652;49.014;12.052;2023-01-25T07:56:17;99246.00;;;5.90
19040;BMP180;9652;49.014;12.052;2023-01-25T07:58:45;99250.00;;;5.90
19040;BMP180;9652;49.014;12.052;2023-01-25T08:01:16;99241.00;;;5.90
19040;BMP180;9652;49.014;12.052;2023-01-25T08:03:46;99239.00;;;5.90
19040;BMP180;9652;49.014;12.052;2023-01-25T08:06:13;99237.00;;;6.00
19040;BMP180;9652;49.014;12.052;2023-01-25T08:08:43;99236.00;;;5.90
19040;BMP180;9652;49.014;12.052;2023-01-25T08:11:15;99236.00;;;6.00
19040;BMP180;9652;49.014;12.052;2023-01-25T08:13:42;99234.00;;;6.00
19040;BMP180;9652;49.014;12.052;2023-01-25T08:16:11;99244.00;;;6.00
19040;BMP180;9652;49.014;12.052;2023-01-25T08:18:38;99239.00;;;6.00
19040;BMP180;9652;49.014;12.052;2023-01-25T08:21:07;99244.00;;;6.00
19040;BMP180;9652;49.014;12.052;2023-01-25T08:23:34;99239.00;;;6.00
19040;BMP180;9652;49.014;12.052;2023-01-25T08:26:02;99238.00;;;6.10
19040;BMP180;9652;49.014;12.052;2023-01-25T08:28:30;99230.00;;;6.10
19040;BMP180;9652;49.014;12.052;2023-01-25T08:31:05;99236.00;;;6.10
19040;BMP180;9652;49.014;12.052;2023-01-25T08:33:33;99236.00;;;6.10
19040;BMP180;9652;49.014;12.052;2023-01-25T08:36:00;99239.00;;;6.10
19040;BMP180;9652;49.014;12.052;2023-01-25T08:38:29;99232.00;;;6.10
19040;BMP180;9652;49.014;12.052;2023-01-25T08:41:04;99236.00;;;6.10
19040;BMP180;9652;49.014;12.052;2023-01-25T08:43:32;99234.00;;;6.00
19040;BMP180;9652;49.014;12.052;2023-01-25T08:46:01;99240.00;;;6.20
19040;BMP180;9652;49.014;12.052;2023-01-25T08:48:28;99234.00;;;6.20
19040;BMP180;9652;49.014;12.052;2023-01-25T08:50:55;99232.00;;;6.20
19040;BMP180;9652;49.014;12.052;2023-01-25T08:53:22;99237.00;;;6.20
19040;BMP180;9652;49.014;12.052;2023-01-25T08:55:51;99232.00;;;6.20
19040;BMP180;9652;49.014;12.052;2023-01-25T08:58:18;99229.00;;;6.20
19040;BMP180;9652;49.014;12.052;2023-01-25T09:00:48;99216.00;;;6.20
19040;BMP180;9652;49.014;12.052;2023-01-25T09:03:15;99232.00;;;6.30
19040;BMP180;9652;49.014;12.052;2023-01-25T09:05:43;99235.00;;;6.30
19040;BMP180;9652;49.014;12.052;2023-01-25T09:08:10;99231.00;;;6.30
19040;BMP180;9652;49.014;12.052;2023-01-25T09:10:37;99226.00;;;6.30
19040;BMP180;9652;49.014;12.052;2023-01-25T09:13:05;99208.00;;;6.30
19040;BMP180;9652;49.014;12.052;2023-01-25T09:15:32;99204.00;;;6.30
19040;BMP180;9652;49.014;12.052;2023-01-25T09:17:59;99205.00;;;6.30
19040;BMP180;9652;49.014;12.052;2023-01-25T09:20:26;99218.00;;;6.30
19040;BMP180;9652;49.014;12.052;2023-01-25T09:22:54;99218.00;;;6.30
19040;BMP180;9652;49.014;12.052;2023-01-25T09:25:21;99216.00;;;6.30
19040;BMP180;9652;49.014;12.052;2023-01-25T09:27:49;99218.00;;;6.30
19040;BMP180;9652;49.014;12.052;2023-01-25T09:30:18;99218.00;;;6.30
19040;BMP180;9652;49.014;12.052;2023-01-25T09:32:49;99205.00;;;6.30
19040;BMP180;9652;49.014;12.052;2023-01-25T09:35:16;99211.00;;;6.30
19040;BMP180;9652;49.014;12.052;2023-01-25T09:37:43;99203.00;;;6.30
19040;BMP180;9652;49.014;12.052;2023-01-25T09:40:20;99215.00;;;6.30
19040;BMP180;9652;49.014;12.052;2023-01-25T09:43:01;99200.00;;;6.20
19040;BMP180;9652;49.014;12.052;2023-01-25T09:45:34;99191.00;;;6.20
19040;BMP180;9652;49.014;12.052;2023-01-25T09:48:17;99207.00;;;6.20
19040;BMP180;9652;49.014;12.052;2023-01-25T09:51:13;99211.00;;;6.20
19040;BMP180;9652;49.014;12.052;2023-01-25T09:53:48;99201.00;;;6.10
19040;BMP180;9652;49.014;12.052;2023-01-25T09:56:22;99197.00;;;6.10
19040;BMP180;9652;49.014;12.052;2023-01-25T09:58:52;99201.00;;;6.20
19040;BMP180;9652;49.014;12.052;2023-01-25T10:01:28;99203.00;;;6.20
19040;BMP180;9652;49.014;12.052;2023-01-25T10:04:04;99199.00;;;6.20
19040;BMP180;9652;49.014;12.052;2023-01-25T10:06:38;99195.00;;;6.10
19040;BMP180;9652;49.014;12.052;2023-01-25T10:09:19;99185.00;;;6.10
19040;BMP180;9652;49.014;12.052;2023-01-25T10:11:50;99186.00;;;6.10
19040;BMP180;9652;49.014;12.052;2023-01-25T10:14:18;99185.00;;;6.20
19040;BMP180;9652;49.014;12.052;2023-01-25T10:17:03;99179.00;;;6.20
19040;BMP180;9652;49.014;12.052;2023-01-25T10:20:07;99185.00;;;6.20
19040;BMP180;9652;49.014;12.052;2023-01-25T10:22:43;99139.00;;;6.20
19040;BMP180;9652;49.014;12.052;2023-01-25T10:25:25;99171.00;;;6.20
19040;BMP180;9652;49.014;12.052;2023-01-25T10:28:13;99163.00;;;6.20
19040;BMP180;9652;49.014;12.052;2023-01-25T10:30:52;99171.00;;;6.20
19040;BMP180;9652;49.014;12.052;2023-01-25T10:33:22;99156.00;;;6.20
19040;BMP180;9652;49.014;12.052;2023-01-25T10:35:49;99143.00;;;6.20
19040;BMP180;9652;49.014;12.052;2023-01-25T10:38:23;99153.00;;;6.20
19040;BMP180;9652;49.014;12.052;2023-01-25T10:40:58;99148.00;;;6.20
19040;BMP180;9652;49.014;12.052;2023-01-25T10:43:27;99148.00;;;6.30
19040;BMP180;9652;49.014;12.052;2023-01-25T10:45:54;99140.00;;;6.30
19040;BMP180;9652;49.014;12.052;2023-01-25T10:48:27;99135.00;;;6.30
19040;BMP180;9652;49.014;12.052;2023-01-25T10:50:56;99129.00;;;6.30
19040;BMP180;9652;49.014;12.052;2023-01-25T10:53:28;99130.00;;;6.40
19040;BMP180;9652;49.014;12.052;2023-01-25T10:58:46;99126.00;;;6.40
19040;BMP180;9652;49.014;12.052;2023-01-25T11:01:26;99107.00;;;6.40
19040;BMP180;9652;49.014;12.052;2023-01-25T11:03:56;99107.00;;;6.40
19040;BMP180;9652;49.014;12.052;2023-01-25T11:06:33;99099.00;;;6.40
19040;BMP180;9652;49.014;12.052;2023-01-25T11:12:18;99090.00;;;6.40
19040;BMP180;9652;49.014;12.052;2023-01-25T11:14:47;99096.00;;;6.40
19040;BMP180;9652;49.014;12.052;2023-01-25T11:17:25;99077.00;;;6.40
19040;BMP180;9652;49.014;12.052;2023-01-25T11:20:15;99092.00;;;6.50
19040;BMP180;9652;49.014;12.052;2023-01-25T11:22:52;99081.00;;;6.50
19040;BMP180;9652;49.014;12.052;2023-01-25T11:25:29;99083.00;;;6.50
19040;BMP180;9652;49.014;12.052;2023-01-25T11:28:18;99074.00;;;6.50
19040;BMP180;9652;49.014;12.052;2023-01-25T11:30:46;99076.00;;;6.60
19040;BMP180;9652;49.014;12.052;2023-01-25T11:33:16;99071.00;;;6.60
19040;BMP180;9652;49.014;12.052;2023-01-25T11:36:18;99063.00;;;6.60
19040;BMP180;9652;49.014;12.052;2023-01-25T11:39:06;99040.00;;;6.60
19040;BMP180;9652;49.014;12.052;2023-01-25T11:41:51;99033.00;;;6.60
19040;BMP180;9652;49.014;12.052;2023-01-25T11:44:52;99041.00;;;6.60
19040;BMP180;9652;49.014;12.052;2023-01-25T11:47:41;99051.00;;;6.60
19040;BMP180;9652;49.014;12.052;2023-01-25T11:50:18;99023.00;;;6.60
19040;BMP180;9652;49.014;12.052;2023-01-25T11:53:24;99049.00;;;6.60
19040;BMP180;9652;49.014;12.052;2023-01-25T11:56:02;99032.00;;;6.60
19040;BMP180;9652;49.014;12.052;2023-01-25T11:59:00;99028.00;;;6.60
19040;BMP180;9652;49.014;12.052;2023-01-25T12:01:37;99031.00;;;6.60
19040;BMP180;9652;49.014;12.052;2023-01-25T12:04:35;99015.00;;;6.60
19040;BMP180;9652;49.014;12.052;2023-01-25T12:07:10;99013.00;;;6.60
19040;BMP180;9652;49.014;12.052;2023-01-25T12:10:00;98997.00;;;6.60
19040;BMP180;9652;49.014;12.052;2023-01-25T12:12:41;98992.00;;;6.60
19040;BMP180;9652;49.014;12.052;2023-01-25T12:15:33;98993.00;;;6.60
19040;BMP180;9652;49.014;12.052;2023-01-25T12:18:46;98995.00;;;6.60
19040;BMP180;9652;49.014;12.052;2023-01-25T12:21:32;98979.00;;;6.50
19040;BMP180;9652;49.014;12.052;2023-01-25T12:24:18;98978.00;;;6.50
19040;BMP180;9652;49.014;12.052;2023-01-25T12:26:59;98967.00;;;6.50
19040;BMP180;9652;49.014;12.052;2023-01-25T12:29:36;98976.00;;;6.50
19040;BMP180;9652;49.014;12.052;2023-01-25T12:32:11;98961.00;;;6.40
19040;BMP180;9652;49.014;12.052;2023-01-25T12:34:45;98940.00;;;6.40
19040;BMP180;9652;49.014;12.052;2023-01-25T12:37:16;98960.00;;;6.40
19040;BMP180;9652;49.014;12.052;2023-01-25T12:39:51;98955.00;;;6.30
19040;BMP180;9652;49.014;12.052;2023-01-25T12:42:30;98950.00;;;6.30
19040;BMP180;9652;49.014;12.052;2023-01-25T12:45:04;98944.00;;;6.20
19040;BMP180;9652;49.014;12.052;2023-01-25T12:47:38;98938.00;;;6.20
19040;BMP180;9652;49.014;12.052;2023-01-25T12:50:18;98923.00;;;6.20
19040;BMP180;9652;49.014;12.052;2023-01-25T12:52:50;98939.00;;;6.20
19040;BMP180;9652;49.014;12.052;2023-01-25T12:55:18;98930.00;;;6.20
19040;BMP180;9652;49.014;12.052;2023-01-25T12:57:55;98931.00;;;6.10
19040;BMP180;9652;49.014;12.052;2023-01-25T13:00:33;98926.00;;;6.10
19040;BMP180;9652;49.014;12.052;2023-01-25T13:03:18;98929.00;;;6.10
19040;BMP180;9652;49.014;12.052;2023-01-25T13:05:55;98918.00;;;6.00
19040;BMP180;9652;49.014;12.052;2023-01-25T13:08:37;98919.00;;;6.00
19040;BMP180;9652;49.014;12.052;2023-01-25T13:11:14;98915.00;;;6.00
19040;BMP180;9652;49.014;12.052;2023-01-25T13:13:43;98907.00;;;6.00
19040;BMP180;9652;49.014;12.052;2023-01-25T13:16:34;98894.00;;;5.90
19040;BMP180;9652;49.014;12.052;2023-01-25T13:19:02;98903.00;;;5.90
19040;BMP180;9652;49.014;12.052;2023-01-25T13:21:42;98889.00;;;5.90
19040;BMP180;9652;49.014;12.052;2023-01-25T13:24:18;98889.00;;;5.90
19040;BMP180;9652;49.014;12.052;2023-01-25T13:26:49;98894.00;;;5.90
19040;BMP180;9652;49.014;12.052;2023-01-25T13:29:56;98894.00;;;5.90
19040;BMP180;9652;49.014;12.052;2023-01-25T13:32:57;98878.00;;;5.90
19040;BMP180;9652;49.014;12.052;2023-01-25T13:35:34;98896.00;;;5.90
19040;BMP180;9652;49.014;12.052;2023-01-25T13:38:34;98875.00;;;5.90
19040;BMP180;9652;49.014;12.052;2023-01-25T13:41:14;98883.00;;;5.90
19040;BMP180;9652;49.014;12.052;2023-01-25T13:43:53;98877.00;;;5.90
19040;BMP180;9652;49.014;12.052;2023-01-25T13:46:24;98871.00;;;5.90
19040;BMP180;9652;49.014;12.052;2023-01-25T13:49:00;98862.00;;;5.90
19040;BMP180;9652;49.014;12.052;2023-01-25T13:51:33;98851.00;;;5.90
19040;BMP180;9652;49.014;12.052;2023-01-25T13:54:02;98851.00;;;5.80
19040;BMP180;9652;49.014;12.052;2023-01-25T13:56:32;98862.00;;;5.80
19040;BMP180;9652;49.014;12.052;2023-01-25T13:59:00;98845.00;;;5.80
19040;BMP180;9652;49.014;12.052;2023-01-25T14:01:31;98861.00;;;5.70
19040;BMP180;9652;49.014;12.052;2023-01-25T14:04:03;98822.00;;;5.70
19040;BMP180;9652;49.014;12.052;2023-01-25T14:06:34;98837.00;;;5.70
19040;BMP180;9652;49.014;12.052;2023-01-25T14:09:09;98858.00;;;5.80
19040;BMP180;9652;49.014;12.052;2023-01-25T14:11:44;98848.00;;;5.70
19040;BMP180;9652;49.014;12.052;2023-01-25T14:14:19;98826.00;;;5.70
19040;BMP180;9652;49.014;12.052;2023-01-25T14:17:01;98851.00;;;5.60
19040;BMP180;9652;49.014;12.052;2023-01-25T14:19:30;98858.00;;;5.50
19040;BMP180;9652;49.014;12.052;2023-01-25T14:22:21;98843.00;;;5.50
19040;BMP180;9652;49.014;12.052;2023-01-25T14:25:05;98846.00;;;5.60
19040;BMP180;9652;49.014;12.052;2023-01-25T14:27:34;98854.00;;;5.60
19040;BMP180;9652;49.014;12.052;2023-01-25T14:30:04;98832.00;;;5.60
19040;BMP180;9652;49.014;12.052;2023-01-25T14:32:32;98854.00;;;5.50
19040;BMP180;9652;49.014;12.052;2023-01-25T14:35:36;98821.00;;;5.50
19040;BMP180;9652;49.014;12.052;2023-01-25T14:38:29;98854.00;;;5.60
19040;BMP180;9652;49.014;12.052;2023-01-25T14:41:02;98815.00;;;5.60
19040;BMP180;9652;49.014;12.052;2023-01-25T14:43:35;98830.00;;;5.60
19040;BMP180;9652;49.014;12.052;2023-01-25T14:46:25;98839.00;;;5.60
19040;BMP180;9652;49.014;12.052;2023-01-25T14:49:14;98832.00;;;5.60
19040;BMP180;9652;49.014;12.052;2023-01-25T14:51:46;98823.00;;;5.60
19040;BMP180;9652;49.014;12.052;2023-01-25T14:54:17;98824.00;;;5.60
19040;BMP180;9652;49.014;12.052;2023-01-25T14:56:47;98826.00;;;5.60
19040;BMP180;9652;49.014;12.052;2023-01-25T14:59:27;98806.00;;;5.60